Ophir, Colorado
Current Conditions -  °F | °C
As of 7:55 AM on Thursday 23 Oct 2014 (Local Time) from KTEX Reporting Station
Clear Clear  
Wind Chill: 37°   Ceiling: Unl
Heat Index: 37°   Visibility: 10mi
Dew Point: 32°   Wind: 3mph
Humidity: 83%   Direction: 130°SE
Pressure: 30.42"   Gusts: NA
Location:  37.86°N, 107.83°W
Report Text: KTEX 231355Z AUTO 13003KT 10SM CLR 03/00 A3042 RMK AO2 T00251002
Loading
Personal Weather Stations






























Interactive Weather Map
Tropical Storm Tracking
New forecast layout! Learn more

10-Day Weather Forecast

Advertisements
Track Severe Weather on mobile